Knippa, Texas
Current Conditions -  °F | °C
As of 4:35 AM on Wednesday 22 Oct 2014 (Local Time) from KUVA Reporting Station
Scattered Clouds Scattered Clouds  
Wind Chill: 68°   Ceiling: Unl
Heat Index: 68°   Visibility: 10mi
Dew Point: 57°   Wind: 5mph
Humidity: 67%   Direction: 70°ENE
Pressure: 30.04"   Gusts: NA
Location:  29.3°N, 99.64°W
Report Text: KUVA 220935Z AUTO 07004KT 10SM SCT075 SCT090 20/14 A3004 RMK AO2 T02000137
Loading
Personal Weather Stations






























Interactive Weather Map
Tropical Storm Tracking
New forecast layout! Learn more

10-Day Weather Forecast

Advertisements
Track Severe Weather on mobile